Aérodrome :







RETROUVEZ-NOUS SUR...

 
LOGIN :

S'inscrire | Disclaimer

   EN    FR    IT 

 









Légende :    VFR   VFR Marginal   IFR   IFR Intensif   IFR Très Intensif
Visi : 
Plafond : 
>= 8 km
>= 3000ft
5 à 8 km
1000 à 3000 ft
1500m à 5 km
500 à 1000 ft
800 à 1500m
200 à 500 ft
< 800m
< 200 ft
Symboles :   Orages  Brouillard  Fortes neiges  Fortes précipitations  Vent > 20 kt






- Altitude de l'aérodrome : 54 ft
- Code IATA : BEL


SBBE - Val de Cans Int.

DERNIER METAR :
  • 051700Z 14008KT 9999 BKN040 32/23 Q1010

METARs EXPIRÉS :
  • 051600Z 10010KT 9999 BKN038 32/23 Q1011
  • 051500Z 12008KT 9999 BKN035 31/23 Q1011

TAF TAF SBBE
Valide du 05 à 12h jusqu'au 06 à 12h UTC


050900Z 0512/0612 12006KT 9999 FEW020 TX33/0518Z TN24/0608Z
BECMG 0513/0515 15008KT BKN025
BECMG 0518/0520 12008KT SCT020 FEW035TCU
PROB30 0521/0523 8000 TS SCT020 FEW035CB
BECMG 0601/0603 15005KT 9999 NSW SCT020 RMK PEN
FIR SBAZ / Amérique du Sud



MET'MAP, la Météo Aéronautique d'un coup d'oeil ! - Copyright ORBIFLY Décembre 2007 - Disclaimer

ORBIFLY MET'MAP TEAM :

Programmation & Développement : Alexandra Zaïnal
Sur une idée originale de : Baudouin d'Aumeries
Assistance à la programmation : Marc-Olivier Méhu
Soutien technique & logistique : Manuel Goepfert

Contact : metmap@orbifly.com




SOURCES & CREDITS :

   NOAA